sensor_id;sensor_type;location;lat;lon;timestamp;P1;durP1;ratioP1;P2;durP2;ratioP2
19207;SDS011;9737;59.466;18.036;2023-02-28T00:01:10;2.20;;;2.00;;
19207;SDS011;9737;59.466;18.036;2023-02-28T00:03:39;2.65;;;2.10;;
19207;SDS011;9737;59.466;18.036;2023-02-28T00:06:07;2.00;;;1.90;;
19207;SDS011;9737;59.466;18.036;2023-02-28T00:08:36;2.20;;;2.00;;
19207;SDS011;9737;59.466;18.036;2023-02-28T00:11:07;2.20;;;1.98;;
19207;SDS011;9737;59.466;18.036;2023-02-28T00:13:37;2.20;;;2.00;;
19207;SDS011;9737;59.466;18.036;2023-02-28T00:16:07;2.30;;;2.10;;
19207;SDS011;9737;59.466;18.036;2023-02-28T00:18:37;2.00;;;1.90;;
19207;SDS011;9737;59.466;18.036;2023-02-28T00:21:05;2.85;;;2.13;;
19207;SDS011;9737;59.466;18.036;2023-02-28T00:23:33;2.45;;;2.20;;
19207;SDS011;9737;59.466;18.036;2023-02-28T00:26:01;4.95;;;2.17;;
19207;SDS011;9737;59.466;18.036;2023-02-28T00:28:31;2.75;;;2.00;;
19207;SDS011;9737;59.466;18.036;2023-02-28T00:31:00;2.15;;;1.95;;
19207;SDS011;9737;59.466;18.036;2023-02-28T00:33:28;2.20;;;2.00;;
19207;SDS011;9737;59.466;18.036;2023-02-28T00:36:06;2.30;;;2.10;;
19207;SDS011;9737;59.466;18.036;2023-02-28T00:38:35;2.35;;;2.20;;
19207;SDS011;9737;59.466;18.036;2023-02-28T00:41:03;2.50;;;2.30;;
19207;SDS011;9737;59.466;18.036;2023-02-28T00:43:33;2.15;;;2.03;;
19207;SDS011;9737;59.466;18.036;2023-02-28T00:46:02;2.22;;;2.08;;
19207;SDS011;9737;59.466;18.036;2023-02-28T00:48:31;2.42;;;2.20;;
19207;SDS011;9737;59.466;18.036;2023-02-28T00:50:59;2.60;;;2.30;;
19207;SDS011;9737;59.466;18.036;2023-02-28T00:53:27;2.25;;;2.05;;
19207;SDS011;9737;59.466;18.036;2023-02-28T00:55:55;2.28;;;2.08;;
19207;SDS011;9737;59.466;18.036;2023-02-28T00:58:23;2.40;;;2.20;;
19207;SDS011;9737;59.466;18.036;2023-02-28T01:00:53;2.72;;;2.00;;
19207;SDS011;9737;59.466;18.036;2023-02-28T01:03:21;2.30;;;2.10;;
19207;SDS011;9737;59.466;18.036;2023-02-28T01:05:50;2.35;;;2.15;;
19207;SDS011;9737;59.466;18.036;2023-02-28T01:08:19;2.63;;;2.30;;
19207;SDS011;9737;59.466;18.036;2023-02-28T01:10:47;2.30;;;2.10;;
19207;SDS011;9737;59.466;18.036;2023-02-28T01:13:15;2.25;;;2.05;;
19207;SDS011;9737;59.466;18.036;2023-02-28T01:15:46;2.33;;;2.13;;
19207;SDS011;9737;59.466;18.036;2023-02-28T01:18:18;2.30;;;2.10;;
19207;SDS011;9737;59.466;18.036;2023-02-28T01:20:47;2.38;;;2.17;;
19207;SDS011;9737;59.466;18.036;2023-02-28T01:23:18;2.20;;;2.00;;
19207;SDS011;9737;59.466;18.036;2023-02-28T01:25:46;2.50;;;2.30;;
19207;SDS011;9737;59.466;18.036;2023-02-28T01:28:14;2.30;;;2.10;;
19207;SDS011;9737;59.466;18.036;2023-02-28T01:30:42;2.88;;;2.10;;
19207;SDS011;9737;59.466;18.036;2023-02-28T01:33:10;2.28;;;2.00;;
19207;SDS011;9737;59.466;18.036;2023-02-28T01:35:39;2.40;;;2.20;;
19207;SDS011;9737;59.466;18.036;2023-02-28T01:38:06;2.28;;;2.17;;
19207;SDS011;9737;59.466;18.036;2023-02-28T01:40:47;2.30;;;2.20;;
19207;SDS011;9737;59.466;18.036;2023-02-28T01:43:18;2.30;;;2.10;;
19207;SDS011;9737;59.466;18.036;2023-02-28T01:45:49;3.92;;;2.28;;
19207;SDS011;9737;59.466;18.036;2023-02-28T01:48:17;2.20;;;2.00;;
19207;SDS011;9737;59.466;18.036;2023-02-28T01:50:47;2.40;;;2.20;;
19207;SDS011;9737;59.466;18.036;2023-02-28T01:53:17;2.30;;;2.00;;
19207;SDS011;9737;59.466;18.036;2023-02-28T01:55:49;2.40;;;2.20;;
19207;SDS011;9737;59.466;18.036;2023-02-28T01:58:19;3.50;;;2.15;;
19207;SDS011;9737;59.466;18.036;2023-02-28T02:00:47;2.17;;;1.98;;
19207;SDS011;9737;59.466;18.036;2023-02-28T02:03:16;3.53;;;2.30;;
19207;SDS011;9737;59.466;18.036;2023-02-28T02:05:47;2.20;;;2.00;;
19207;SDS011;9737;59.466;18.036;2023-02-28T02:08:16;2.40;;;2.20;;
19207;SDS011;9737;59.466;18.036;2023-02-28T02:10:46;2.30;;;2.10;;
19207;SDS011;9737;59.466;18.036;2023-02-28T02:13:24;2.20;;;2.10;;
19207;SDS011;9737;59.466;18.036;2023-02-28T02:16:04;2.50;;;2.25;;
19207;SDS011;9737;59.466;18.036;2023-02-28T02:18:43;2.22;;;2.03;;
19207;SDS011;9737;59.466;18.036;2023-02-28T02:21:21;2.30;;;2.10;;
19207;SDS011;9737;59.466;18.036;2023-02-28T02:24:24;2.38;;;2.20;;
19207;SDS011;9737;59.466;18.036;2023-02-28T02:27:11;3.05;;;2.20;;
19207;SDS011;9737;59.466;18.036;2023-02-28T02:32:58;2.38;;;2.17;;
19207;SDS011;9737;59.466;18.036;2023-02-28T02:35:39;2.42;;;2.22;;
19207;SDS011;9737;59.466;18.036;2023-02-28T02:38:11;2.40;;;2.20;;
19207;SDS011;9737;59.466;18.036;2023-02-28T02:40:47;2.08;;;1.95;;
19207;SDS011;9737;59.466;18.036;2023-02-28T02:43:25;2.28;;;2.05;;
19207;SDS011;9737;59.466;18.036;2023-02-28T02:45:58;2.40;;;2.20;;
19207;SDS011;9737;59.466;18.036;2023-02-28T02:48:30;2.53;;;2.30;;
19207;SDS011;9737;59.466;18.036;2023-02-28T02:51:04;2.33;;;2.13;;
19207;SDS011;9737;59.466;18.036;2023-02-28T02:53:40;2.53;;;2.30;;
19207;SDS011;9737;59.466;18.036;2023-02-28T02:56:11;2.38;;;2.22;;
19207;SDS011;9737;59.466;18.036;2023-02-28T02:58:41;2.40;;;2.20;;
19207;SDS011;9737;59.466;18.036;2023-02-28T03:01:12;2.50;;;2.30;;
19207;SDS011;9737;59.466;18.036;2023-02-28T03:03:43;2.40;;;2.20;;
19207;SDS011;9737;59.466;18.036;2023-02-28T03:06:14;3.83;;;2.10;;
19207;SDS011;9737;59.466;18.036;2023-02-28T03:08:42;2.45;;;2.28;;
19207;SDS011;9737;59.466;18.036;2023-02-28T03:11:11;2.60;;;2.20;;
19207;SDS011;9737;59.466;18.036;2023-02-28T03:13:52;2.67;;;2.45;;
19207;SDS011;9737;59.466;18.036;2023-02-28T03:16:33;2.45;;;2.20;;
19207;SDS011;9737;59.466;18.036;2023-02-28T03:19:25;6.68;;;2.55;;
19207;SDS011;9737;59.466;18.036;2023-02-28T03:22:22;2.35;;;2.15;;
19207;SDS011;9737;59.466;18.036;2023-02-28T03:25:03;2.42;;;2.20;;
19207;SDS011;9737;59.466;18.036;2023-02-28T03:27:37;2.47;;;2.28;;
19207;SDS011;9737;59.466;18.036;2023-02-28T03:30:10;5.53;;;2.20;;
19207;SDS011;9737;59.466;18.036;2023-02-28T03:32:43;2.72;;;2.30;;
19207;SDS011;9737;59.466;18.036;2023-02-28T03:35:19;2.55;;;2.35;;
19207;SDS011;9737;59.466;18.036;2023-02-28T03:37:52;2.40;;;2.20;;
19207;SDS011;9737;59.466;18.036;2023-02-28T03:40:25;2.50;;;2.30;;
19207;SDS011;9737;59.466;18.036;2023-02-28T03:42:56;2.42;;;2.22;;
19207;SDS011;9737;59.466;18.036;2023-02-28T03:45:29;2.55;;;2.35;;
19207;SDS011;9737;59.466;18.036;2023-02-28T03:48:02;2.53;;;2.33;;
19207;SDS011;9737;59.466;18.036;2023-02-28T03:50:36;2.50;;;2.30;;
19207;SDS011;9737;59.466;18.036;2023-02-28T03:53:08;2.70;;;2.50;;
19207;SDS011;9737;59.466;18.036;2023-02-28T03:55:41;4.80;;;2.20;;
19207;SDS011;9737;59.466;18.036;2023-02-28T03:58:12;2.28;;;2.10;;
19207;SDS011;9737;59.466;18.036;2023-02-28T04:00:49;2.45;;;2.25;;
19207;SDS011;9737;59.466;18.036;2023-02-28T04:03:22;2.30;;;2.10;;
19207;SDS011;9737;59.466;18.036;2023-02-28T04:05:51;2.40;;;2.20;;
19207;SDS011;9737;59.466;18.036;2023-02-28T04:08:22;2.40;;;2.15;;
19207;SDS011;9737;59.466;18.036;2023-02-28T04:10:51;3.75;;;2.45;;
19207;SDS011;9737;59.466;18.036;2023-02-28T04:13:22;2.20;;;2.10;;
19207;SDS011;9737;59.466;18.036;2023-02-28T04:15:50;2.50;;;2.30;;
19207;SDS011;9737;59.466;18.036;2023-02-28T04:18:19;2.47;;;2.20;;
19207;SDS011;9737;59.466;18.036;2023-02-28T04:20:47;2.30;;;2.10;;
19207;SDS011;9737;59.466;18.036;2023-02-28T04:23:14;2.45;;;2.25;;
19207;SDS011;9737;59.466;18.036;2023-02-28T04:25:43;2.72;;;2.40;;
19207;SDS011;9737;59.466;18.036;2023-02-28T04:28:11;3.15;;;2.20;;
19207;SDS011;9737;59.466;18.036;2023-02-28T04:30:39;2.60;;;2.30;;
19207;SDS011;9737;59.466;18.036;2023-02-28T04:33:07;2.60;;;2.30;;
19207;SDS011;9737;59.466;18.036;2023-02-28T04:35:35;2.28;;;2.08;;
19207;SDS011;9737;59.466;18.036;2023-02-28T04:38:03;2.53;;;2.30;;
19207;SDS011;9737;59.466;18.036;2023-02-28T04:40:30;2.88;;;2.40;;
19207;SDS011;9737;59.466;18.036;2023-02-28T04:43:00;2.45;;;2.20;;
19207;SDS011;9737;59.466;18.036;2023-02-28T04:45:27;2.45;;;2.20;;
19207;SDS011;9737;59.466;18.036;2023-02-28T04:47:58;2.60;;;2.40;;
19207;SDS011;9737;59.466;18.036;2023-02-28T04:50:26;2.30;;;2.10;;
19207;SDS011;9737;59.466;18.036;2023-02-28T04:52:54;2.80;;;2.22;;
19207;SDS011;9737;59.466;18.036;2023-02-28T04:55:21;2.40;;;2.20;;
19207;SDS011;9737;59.466;18.036;2023-02-28T04:57:49;2.40;;;2.20;;
19207;SDS011;9737;59.466;18.036;2023-02-28T05:00:19;2.40;;;2.20;;
19207;SDS011;9737;59.466;18.036;2023-02-28T05:02:47;2.55;;;2.35;;
19207;SDS011;9737;59.466;18.036;2023-02-28T05:05:15;2.22;;;2.13;;
19207;SDS011;9737;59.466;18.036;2023-02-28T05:07:44;2.85;;;2.25;;
19207;SDS011;9737;59.466;18.036;2023-02-28T05:10:12;5.30;;;2.83;;
19207;SDS011;9737;59.466;18.036;2023-02-28T05:12:40;3.08;;;2.50;;
19207;SDS011;9737;59.466;18.036;2023-02-28T05:15:08;2.38;;;2.17;;
19207;SDS011;9737;59.466;18.036;2023-02-28T05:17:41;2.60;;;2.40;;
19207;SDS011;9737;59.466;18.036;2023-02-28T05:20:10;2.53;;;2.33;;
19207;SDS011;9737;59.466;18.036;2023-02-28T05:22:41;3.42;;;2.30;;
19207;SDS011;9737;59.466;18.036;2023-02-28T05:25:10;3.20;;;2.78;;
19207;SDS011;9737;59.466;18.036;2023-02-28T05:27:41;2.55;;;2.35;;
19207;SDS011;9737;59.466;18.036;2023-02-28T05:30:09;2.50;;;2.30;;
19207;SDS011;9737;59.466;18.036;2023-02-28T05:32:38;2.55;;;2.35;;
19207;SDS011;9737;59.466;18.036;2023-02-28T05:35:10;3.72;;;2.13;;
19207;SDS011;9737;59.466;18.036;2023-02-28T05:37:39;2.70;;;2.50;;
19207;SDS011;9737;59.466;18.036;2023-02-28T05:40:07;2.65;;;2.45;;
19207;SDS011;9737;59.466;18.036;2023-02-28T05:42:36;2.45;;;2.25;;
19207;SDS011;9737;59.466;18.036;2023-02-28T05:45:05;2.65;;;2.45;;
19207;SDS011;9737;59.466;18.036;2023-02-28T05:47:34;2.70;;;2.50;;
19207;SDS011;9737;59.466;18.036;2023-02-28T05:50:03;2.30;;;2.20;;
19207;SDS011;9737;59.466;18.036;2023-02-28T05:52:33;2.70;;;2.50;;
19207;SDS011;9737;59.466;18.036;2023-02-28T05:55:01;2.88;;;2.35;;
19207;SDS011;9737;59.466;18.036;2023-02-28T05:57:29;2.55;;;2.35;;
19207;SDS011;9737;59.466;18.036;2023-02-28T05:59:56;2.58;;;2.38;;
19207;SDS011;9737;59.466;18.036;2023-02-28T06:02:24;4.28;;;3.05;;
19207;SDS011;9737;59.466;18.036;2023-02-28T06:04:52;3.55;;;2.75;;
19207;SDS011;9737;59.466;18.036;2023-02-28T06:07:20;3.83;;;2.88;;
19207;SDS011;9737;59.466;18.036;2023-02-28T06:09:50;3.85;;;3.17;;
19207;SDS011;9737;59.466;18.036;2023-02-28T06:12:17;5.15;;;3.50;;
19207;SDS011;9737;59.466;18.036;2023-02-28T06:14:45;5.20;;;3.63;;
19207;SDS011;9737;59.466;18.036;2023-02-28T06:17:13;4.10;;;3.22;;
19207;SDS011;9737;59.466;18.036;2023-02-28T06:19:41;4.60;;;3.47;;
19207;SDS011;9737;59.466;18.036;2023-02-28T06:22:09;4.30;;;3.40;;
19207;SDS011;9737;59.466;18.036;2023-02-28T06:24:37;4.05;;;3.20;;
19207;SDS011;9737;59.466;18.036;2023-02-28T06:27:06;3.47;;;2.83;;
19207;SDS011;9737;59.466;18.036;2023-02-28T06:29:34;2.75;;;2.42;;
19207;SDS011;9737;59.466;18.036;2023-02-28T06:32:06;2.90;;;2.70;;
19207;SDS011;9737;59.466;18.036;2023-02-28T06:34:34;4.13;;;2.45;;
19207;SDS011;9737;59.466;18.036;2023-02-28T06:37:01;2.53;;;2.33;;
19207;SDS011;9737;59.466;18.036;2023-02-28T06:39:29;2.70;;;2.50;;
19207;SDS011;9737;59.466;18.036;2023-02-28T06:41:58;2.50;;;2.30;;
19207;SDS011;9737;59.466;18.036;2023-02-28T06:44:27;2.33;;;2.20;;
19207;SDS011;9737;59.466;18.036;2023-02-28T06:47:01;2.08;;;1.98;;
19207;SDS011;9737;59.466;18.036;2023-02-28T06:49:32;2.33;;;2.20;;
19207;SDS011;9737;59.466;18.036;2023-02-28T06:52:01;2.38;;;2.17;;
19207;SDS011;9737;59.466;18.036;2023-02-28T06:54:29;2.53;;;2.30;;
19207;SDS011;9737;59.466;18.036;2023-02-28T06:56:57;2.13;;;2.03;;
19207;SDS011;9737;59.466;18.036;2023-02-28T06:59:28;2.90;;;2.20;;
19207;SDS011;9737;59.466;18.036;2023-02-28T07:01:56;6.85;;;2.28;;
19207;SDS011;9737;59.466;18.036;2023-02-28T07:04:24;3.30;;;2.30;;
19207;SDS011;9737;59.466;18.036;2023-02-28T07:06:52;2.25;;;2.10;;
19207;SDS011;9737;59.466;18.036;2023-02-28T07:09:22;3.65;;;2.03;;
19207;SDS011;9737;59.466;18.036;2023-02-28T07:11:50;2.33;;;2.13;;
19207;SDS011;9737;59.466;18.036;2023-02-28T07:14:18;2.25;;;2.05;;
19207;SDS011;9737;59.466;18.036;2023-02-28T07:16:47;1.98;;;1.88;;
19207;SDS011;9737;59.466;18.036;2023-02-28T07:19:16;2.17;;;1.92;;
19207;SDS011;9737;59.466;18.036;2023-02-28T07:21:44;2.08;;;1.90;;
19207;SDS011;9737;59.466;18.036;2023-02-28T07:24:12;5.22;;;1.98;;
19207;SDS011;9737;59.466;18.036;2023-02-28T07:26:42;2.20;;;2.00;;
19207;SDS011;9737;59.466;18.036;2023-02-28T07:29:09;3.97;;;2.05;;
19207;SDS011;9737;59.466;18.036;2023-02-28T07:31:37;3.78;;;1.77;;
19207;SDS011;9737;59.466;18.036;2023-02-28T07:34:07;2.60;;;2.05;;
19207;SDS011;9737;59.466;18.036;2023-02-28T07:36:35;2.08;;;1.83;;
19207;SDS011;9737;59.466;18.036;2023-02-28T07:39:03;3.50;;;1.70;;
19207;SDS011;9737;59.466;18.036;2023-02-28T07:41:31;1.80;;;1.70;;
19207;SDS011;9737;59.466;18.036;2023-02-28T07:44:00;1.90;;;1.70;;
19207;SDS011;9737;59.466;18.036;2023-02-28T07:46:29;2.20;;;1.60;;
19207;SDS011;9737;59.466;18.036;2023-02-28T07:49:02;4.88;;;1.75;;
19207;SDS011;9737;59.466;18.036;2023-02-28T07:51:32;5.15;;;1.60;;
19207;SDS011;9737;59.466;18.036;2023-02-28T07:54:00;1.90;;;1.70;;
19207;SDS011;9737;59.466;18.036;2023-02-28T07:56:29;3.90;;;1.63;;
19207;SDS011;9737;59.466;18.036;2023-02-28T07:58:57;2.53;;;1.50;;
19207;SDS011;9737;59.466;18.036;2023-02-28T08:01:25;2.38;;;1.42;;
19207;SDS011;9737;59.466;18.036;2023-02-28T08:03:54;1.42;;;1.33;;
19207;SDS011;9737;59.466;18.036;2023-02-28T08:06:23;1.40;;;1.30;;
19207;SDS011;9737;59.466;18.036;2023-02-28T08:08:53;1.50;;;1.30;;
19207;SDS011;9737;59.466;18.036;2023-02-28T08:11:22;1.40;;;1.30;;
19207;SDS011;9737;59.466;18.036;2023-02-28T08:13:50;2.03;;;1.38;;
19207;SDS011;9737;59.466;18.036;2023-02-28T08:16:18;1.30;;;1.20;;
19207;SDS011;9737;59.466;18.036;2023-02-28T08:18:48;2.63;;;1.40;;
19207;SDS011;9737;59.466;18.036;2023-02-28T08:21:17;2.10;;;1.20;;
19207;SDS011;9737;59.466;18.036;2023-02-28T08:23:46;1.60;;;1.40;;
19207;SDS011;9737;59.466;18.036;2023-02-28T08:26:16;1.75;;;1.20;;
19207;SDS011;9737;59.466;18.036;2023-02-28T08:28:44;2.15;;;1.40;;
19207;SDS011;9737;59.466;18.036;2023-02-28T08:31:13;2.00;;;1.30;;
19207;SDS011;9737;59.466;18.036;2023-02-28T08:33:42;1.33;;;1.23;;
19207;SDS011;9737;59.466;18.036;2023-02-28T08:36:11;3.90;;;1.42;;
19207;SDS011;9737;59.466;18.036;2023-02-28T08:38:39;1.52;;;1.38;;
19207;SDS011;9737;59.466;18.036;2023-02-28T08:41:09;1.52;;;1.42;;
19207;SDS011;9737;59.466;18.036;2023-02-28T08:43:40;1.52;;;1.33;;
19207;SDS011;9737;59.466;18.036;2023-02-28T08:46:08;1.50;;;1.40;;
19207;SDS011;9737;59.466;18.036;2023-02-28T08:48:39;1.40;;;1.30;;
19207;SDS011;9737;59.466;18.036;2023-02-28T08:51:08;1.30;;;1.20;;
19207;SDS011;9737;59.466;18.036;2023-02-28T08:53:38;4.20;;;1.15;;
19207;SDS011;9737;59.466;18.036;2023-02-28T08:56:08;1.35;;;1.20;;
19207;SDS011;9737;59.466;18.036;2023-02-28T08:58:37;1.45;;;1.35;;
19207;SDS011;9737;59.466;18.036;2023-02-28T09:01:10;1.17;;;1.08;;
19207;SDS011;9737;59.466;18.036;2023-02-28T09:03:40;1.67;;;1.40;;
19207;SDS011;9737;59.466;18.036;2023-02-28T09:06:09;2.85;;;1.10;;
19207;SDS011;9737;59.466;18.036;2023-02-28T09:08:37;1.20;;;1.10;;
19207;SDS011;9737;59.466;18.036;2023-02-28T09:11:06;1.20;;;1.10;;
19207;SDS011;9737;59.466;18.036;2023-02-28T09:13:35;2.05;;;1.00;;
19207;SDS011;9737;59.466;18.036;2023-02-28T09:16:03;3.08;;;1.00;;
19207;SDS011;9737;59.466;18.036;2023-02-28T09:18:34;0.90;;;0.90;;
19207;SDS011;9737;59.466;18.036;2023-02-28T09:21:04;1.33;;;0.93;;
19207;SDS011;9737;59.466;18.036;2023-02-28T09:23:33;2.58;;;0.85;;
19207;SDS011;9737;59.466;18.036;2023-02-28T09:26:03;1.98;;;0.90;;
19207;SDS011;9737;59.466;18.036;2023-02-28T09:28:31;2.78;;;0.98;;
19207;SDS011;9737;59.466;18.036;2023-02-28T09:30:59;0.68;;;0.65;;
19207;SDS011;9737;59.466;18.036;2023-02-28T09:33:27;2.05;;;0.90;;
19207;SDS011;9737;59.466;18.036;2023-02-28T09:35:59;3.05;;;0.90;;
19207;SDS011;9737;59.466;18.036;2023-02-28T09:38:28;2.05;;;0.77;;
19207;SDS011;9737;59.466;18.036;2023-02-28T09:40:57;0.80;;;0.80;;
19207;SDS011;9737;59.466;18.036;2023-02-28T09:43:27;3.60;;;0.93;;
19207;SDS011;9737;59.466;18.036;2023-02-28T09:46:02;1.17;;;0.80;;
19207;SDS011;9737;59.466;18.036;2023-02-28T09:48:38;2.65;;;0.90;;
19207;SDS011;9737;59.466;18.036;2023-02-28T09:51:27;1.00;;;0.90;;
19207;SDS011;9737;59.466;18.036;2023-02-28T09:54:12;1.33;;;0.80;;
19207;SDS011;9737;59.466;18.036;2023-02-28T09:56:45;3.22;;;0.95;;
19207;SDS011;9737;59.466;18.036;2023-02-28T09:59:23;0.80;;;0.80;;
19207;SDS011;9737;59.466;18.036;2023-02-28T10:02:02;2.70;;;0.90;;
19207;SDS011;9737;59.466;18.036;2023-02-28T10:04:42;1.83;;;1.00;;
19207;SDS011;9737;59.466;18.036;2023-02-28T10:07:22;2.88;;;1.10;;
19207;SDS011;9737;59.466;18.036;2023-02-28T10:10:06;1.13;;;0.80;;
19207;SDS011;9737;59.466;18.036;2023-02-28T10:12:43;5.25;;;1.25;;
19207;SDS011;9737;59.466;18.036;2023-02-28T10:15:13;3.63;;;1.00;;
19207;SDS011;9737;59.466;18.036;2023-02-28T10:17:44;2.25;;;1.00;;
19207;SDS011;9737;59.466;18.036;2023-02-28T10:20:34;2.60;;;1.00;;
19207;SDS011;9737;59.466;18.036;2023-02-28T10:23:08;1.70;;;1.00;;
19207;SDS011;9737;59.466;18.036;2023-02-28T10:25:41;4.15;;;1.25;;
19207;SDS011;9737;59.466;18.036;2023-02-28T10:28:15;1.52;;;0.90;;
19207;SDS011;9737;59.466;18.036;2023-02-28T10:30:45;3.05;;;0.95;;
19207;SDS011;9737;59.466;18.036;2023-02-28T10:33:17;0.90;;;0.90;;
19207;SDS011;9737;59.466;18.036;2023-02-28T10:35:48;1.25;;;0.88;;
19207;SDS011;9737;59.466;18.036;2023-02-28T10:38:19;6.05;;;1.48;;
19207;SDS011;9737;59.466;18.036;2023-02-28T10:40:49;3.05;;;0.80;;
19207;SDS011;9737;59.466;18.036;2023-02-28T10:43:21;3.15;;;1.00;;
19207;SDS011;9737;59.466;18.036;2023-02-28T10:45:58;1.50;;;0.80;;
19207;SDS011;9737;59.466;18.036;2023-02-28T10:48:30;3.53;;;1.00;;
19207;SDS011;9737;59.466;18.036;2023-02-28T10:51:01;2.83;;;0.82;;
19207;SDS011;9737;59.466;18.036;2023-02-28T10:53:33;1.50;;;0.75;;
19207;SDS011;9737;59.466;18.036;2023-02-28T10:56:24;1.05;;;0.60;;
19207;SDS011;9737;59.466;18.036;2023-02-28T10:58:55;1.10;;;0.55;;
19207;SDS011;9737;59.466;18.036;2023-02-28T11:01:26;1.05;;;0.80;;
19207;SDS011;9737;59.466;18.036;2023-02-28T11:04:02;2.33;;;0.80;;
19207;SDS011;9737;59.466;18.036;2023-02-28T11:06:31;2.78;;;0.70;;
19207;SDS011;9737;59.466;18.036;2023-02-28T11:09:02;2.13;;;0.80;;
19207;SDS011;9737;59.466;18.036;2023-02-28T11:11:41;1.02;;;0.70;;
19207;SDS011;9737;59.466;18.036;2023-02-28T11:14:14;1.88;;;0.85;;
19207;SDS011;9737;59.466;18.036;2023-02-28T11:16:47;0.82;;;0.70;;
19207;SDS011;9737;59.466;18.036;2023-02-28T11:19:18;1.33;;;0.60;;
19207;SDS011;9737;59.466;18.036;2023-02-28T11:21:51;4.03;;;0.70;;
19207;SDS011;9737;59.466;18.036;2023-02-28T11:24:24;2.40;;;0.80;;
19207;SDS011;9737;59.466;18.036;2023-02-28T11:26:55;1.35;;;0.80;;
19207;SDS011;9737;59.466;18.036;2023-02-28T11:29:24;2.35;;;0.63;;
19207;SDS011;9737;59.466;18.036;2023-02-28T11:32:11;2.53;;;0.80;;
19207;SDS011;9737;59.466;18.036;2023-02-28T11:34:43;1.67;;;0.60;;
19207;SDS011;9737;59.466;18.036;2023-02-28T11:37:13;0.88;;;0.60;;
19207;SDS011;9737;59.466;18.036;2023-02-28T11:39:44;1.08;;;0.60;;
19207;SDS011;9737;59.466;18.036;2023-02-28T11:42:25;0.50;;;0.50;;
19207;SDS011;9737;59.466;18.036;2023-02-28T11:45:08;6.30;;;0.70;;
19207;SDS011;9737;59.466;18.036;2023-02-28T11:47:43;1.33;;;0.65;;
19207;SDS011;9737;59.466;18.036;2023-02-28T11:50:27;0.95;;;0.50;;
19207;SDS011;9737;59.466;18.036;2023-02-28T11:53:19;1.45;;;0.70;;
19207;SDS011;9737;59.466;18.036;2023-02-28T11:56:00;3.60;;;0.70;;
19207;SDS011;9737;59.466;18.036;2023-02-28T11:58:36;0.82;;;0.68;;
19207;SDS011;9737;59.466;18.036;2023-02-28T12:01:23;2.45;;;0.80;;
19207;SDS011;9737;59.466;18.036;2023-02-28T12:04:09;0.93;;;0.70;;
19207;SDS011;9737;59.466;18.036;2023-02-28T12:06:45;1.33;;;0.60;;
19207;SDS011;9737;59.466;18.036;2023-02-28T12:09:23;2.55;;;0.70;;
19207;SDS011;9737;59.466;18.036;2023-02-28T12:12:10;0.80;;;0.70;;
19207;SDS011;9737;59.466;18.036;2023-02-28T12:17:58;1.75;;;0.63;;
19207;SDS011;9737;59.466;18.036;2023-02-28T12:20:40;1.10;;;0.73;;
19207;SDS011;9737;59.466;18.036;2023-02-28T12:23:22;0.60;;;0.60;;
19207;SDS011;9737;59.466;18.036;2023-02-28T12:26:09;3.50;;;0.68;;
19207;SDS011;9737;59.466;18.036;2023-02-28T12:28:46;2.00;;;0.70;;
19207;SDS011;9737;59.466;18.036;2023-02-28T12:31:18;1.17;;;0.60;;
19207;SDS011;9737;59.466;18.036;2023-02-28T12:33:50;0.60;;;0.60;;
19207;SDS011;9737;59.466;18.036;2023-02-28T12:36:20;0.60;;;0.60;;
19207;SDS011;9737;59.466;18.036;2023-02-28T12:38:51;1.05;;;0.80;;
19207;SDS011;9737;59.466;18.036;2023-02-28T12:41:27;2.38;;;0.85;;
19207;SDS011;9737;59.466;18.036;2023-02-28T12:44:02;1.80;;;0.82;;
19207;SDS011;9737;59.466;18.036;2023-02-28T12:46:34;1.25;;;0.85;;
19207;SDS011;9737;59.466;18.036;2023-02-28T12:49:05;0.93;;;0.70;;
19207;SDS011;9737;59.466;18.036;2023-02-28T12:51:40;2.15;;;0.80;;
19207;SDS011;9737;59.466;18.036;2023-02-28T12:54:10;0.93;;;0.70;;
19207;SDS011;9737;59.466;18.036;2023-02-28T12:56:47;0.70;;;0.70;;
19207;SDS011;9737;59.466;18.036;2023-02-28T12:59:24;2.15;;;0.90;;
19207;SDS011;9737;59.466;18.036;2023-02-28T13:01:57;0.70;;;0.70;;
19207;SDS011;9737;59.466;18.036;2023-02-28T13:04:45;0.70;;;0.70;;
19207;SDS011;9737;59.466;18.036;2023-02-28T13:10:16;2.15;;;0.60;;
19207;SDS011;9737;59.466;18.036;2023-02-28T13:12:48;4.35;;;0.70;;
19207;SDS011;9737;59.466;18.036;2023-02-28T13:15:20;1.02;;;0.70;;
19207;SDS011;9737;59.466;18.036;2023-02-28T13:17:52;0.80;;;0.80;;
19207;SDS011;9737;59.466;18.036;2023-02-28T13:20:23;3.17;;;0.90;;
19207;SDS011;9737;59.466;18.036;2023-02-28T13:22:53;0.80;;;0.80;;
19207;SDS011;9737;59.466;18.036;2023-02-28T13:31:27;0.70;;;0.70;;
19207;SDS011;9737;59.466;18.036;2023-02-28T13:34:06;3.72;;;0.77;;
19207;SDS011;9737;59.466;18.036;2023-02-28T13:36:41;2.72;;;0.70;;
19207;SDS011;9737;59.466;18.036;2023-02-28T13:42:22;1.63;;;0.80;;
19207;SDS011;9737;59.466;18.036;2023-02-28T13:47:53;2.50;;;0.90;;
19207;SDS011;9737;59.466;18.036;2023-02-28T13:50:24;1.05;;;0.70;;
19207;SDS011;9737;59.466;18.036;2023-02-28T13:53:01;0.73;;;0.70;;
19207;SDS011;9737;59.466;18.036;2023-02-28T13:55:52;1.10;;;0.70;;
19207;SDS011;9737;59.466;18.036;2023-02-28T13:58:28;1.60;;;0.80;;
19207;SDS011;9737;59.466;18.036;2023-02-28T14:01:10;4.30;;;0.85;;
19207;SDS011;9737;59.466;18.036;2023-02-28T14:03:58;3.72;;;0.90;;
19207;SDS011;9737;59.466;18.036;2023-02-28T14:06:37;3.67;;;0.77;;
19207;SDS011;9737;59.466;18.036;2023-02-28T14:09:15;0.80;;;0.80;;
19207;SDS011;9737;59.466;18.036;2023-02-28T14:11:49;2.20;;;0.88;;
19207;SDS011;9737;59.466;18.036;2023-02-28T14:17:26;0.70;;;0.70;;
19207;SDS011;9737;59.466;18.036;2023-02-28T14:19:55;1.73;;;0.90;;
19207;SDS011;9737;59.466;18.036;2023-02-28T14:22:34;2.30;;;0.90;;
19207;SDS011;9737;59.466;18.036;2023-02-28T14:25:18;3.70;;;0.80;;
19207;SDS011;9737;59.466;18.036;2023-02-28T14:27:55;1.10;;;0.65;;
19207;SDS011;9737;59.466;18.036;2023-02-28T14:33:26;0.90;;;0.60;;
19207;SDS011;9737;59.466;18.036;2023-02-28T14:36:07;1.50;;;0.60;;
19207;SDS011;9737;59.466;18.036;2023-02-28T14:38:40;0.80;;;0.60;;
19207;SDS011;9737;59.466;18.036;2023-02-28T14:41:14;0.98;;;0.70;;
19207;SDS011;9737;59.466;18.036;2023-02-28T14:43:55;1.48;;;0.70;;
19207;SDS011;9737;59.466;18.036;2023-02-28T14:46:25;2.63;;;0.75;;
19207;SDS011;9737;59.466;18.036;2023-02-28T14:49:04;2.22;;;0.80;;
19207;SDS011;9737;59.466;18.036;2023-02-28T14:51:35;1.38;;;0.80;;
19207;SDS011;9737;59.466;18.036;2023-02-28T14:54:03;1.00;;;1.00;;
19207;SDS011;9737;59.466;18.036;2023-02-28T14:56:33;4.80;;;1.10;;
19207;SDS011;9737;59.466;18.036;2023-02-28T14:59:03;1.92;;;0.90;;
19207;SDS011;9737;59.466;18.036;2023-02-28T15:01:32;2.85;;;1.20;;
19207;SDS011;9737;59.466;18.036;2023-02-28T15:04:01;2.30;;;1.40;;
19207;SDS011;9737;59.466;18.036;2023-02-28T15:06:31;1.70;;;1.30;;
19207;SDS011;9737;59.466;18.036;2023-02-28T15:09:08;5.15;;;1.50;;
19207;SDS011;9737;59.466;18.036;2023-02-28T15:11:38;3.25;;;1.20;;
19207;SDS011;9737;59.466;18.036;2023-02-28T15:14:12;3.58;;;1.35;;
19207;SDS011;9737;59.466;18.036;2023-02-28T15:16:43;3.78;;;1.30;;
19207;SDS011;9737;59.466;18.036;2023-02-28T15:19:14;2.28;;;1.45;;
19207;SDS011;9737;59.466;18.036;2023-02-28T15:21:48;2.60;;;1.50;;
19207;SDS011;9737;59.466;18.036;2023-02-28T15:24:29;3.97;;;1.58;;
19207;SDS011;9737;59.466;18.036;2023-02-28T15:27:03;2.10;;;1.67;;
19207;SDS011;9737;59.466;18.036;2023-02-28T15:29:34;2.30;;;1.63;;
19207;SDS011;9737;59.466;18.036;2023-02-28T15:32:21;2.70;;;1.63;;
19207;SDS011;9737;59.466;18.036;2023-02-28T15:34:52;3.72;;;1.65;;
19207;SDS011;9737;59.466;18.036;2023-02-28T15:37:37;3.47;;;1.80;;
19207;SDS011;9737;59.466;18.036;2023-02-28T15:40:13;3.03;;;1.80;;
19207;SDS011;9737;59.466;18.036;2023-02-28T15:42:42;2.38;;;1.50;;
19207;SDS011;9737;59.466;18.036;2023-02-28T15:47:54;1.80;;;1.60;;